Time;durP1;ratioP1;P1;durP2;ratioP2;P2;SDS_P1;SDS_P2;PMS_P1;PMS_P2;Temp;Humidity;BMP_temperature;BMP_pressure;BME280_temperature;BME280_humidity;BME280_pressure;Samples;Min_cycle;Max_cycle;Signal;HPM_P1;HPM_P2
2023/05/12 00:00:33;;;;;;;25.45;18.67;;;;;;;;;;5066756;28;20044;-84
2023/05/12 00:03:02;;;;;;;28.95;19.23;;;;;;;;;;5071198;28;20048;-82
2023/05/12 00:05:28;;;;;;;27.23;19.25;;;;;;;;;;5070579;28;20052;-81
2023/05/12 00:07:55;;;;;;;34.05;20.33;;;;;;;;;;5059159;28;20049;-80
2023/05/12 00:10:21;;;;;;;28.55;19.50;;;;;;;;;;5061898;28;20041;-82
2023/05/12 00:12:47;;;;;;;28.90;19.80;;;;;;;;;;5046900;28;20081;-82
2023/05/12 00:15:13;;;;;;;30.98;20.10;;;;;;;;;;5044251;28;20049;-83
2023/05/12 00:17:39;;;;;;;36.03;21.80;;;;;;;;;;5063031;28;20047;-81
2023/05/12 00:20:09;;;;;;;34.88;22.02;;;;;;;;;;5058454;28;20108;-81
2023/05/12 00:22:35;;;;;;;32.33;21.40;;;;;;;;;;5061311;28;20071;-80
2023/05/12 00:25:01;;;;;;;36.50;22.42;;;;;;;;;;5061955;28;20071;-80
2023/05/12 00:27:30;;;;;;;38.20;23.75;;;;;;;;;;5061665;28;20069;-82
2023/05/12 00:29:57;;;;;;;34.28;23.00;;;;;;;;;;5058930;28;20045;-82
2023/05/12 00:32:23;;;;;;;38.78;24.38;;;;;;;;;;5063181;28;20057;-81
2023/05/12 00:34:49;;;;;;;38.53;24.73;;;;;;;;;;5063068;28;20044;-82
2023/05/12 00:37:16;;;;;;;41.63;24.55;;;;;;;;;;5062118;28;20044;-81
2023/05/12 00:39:42;;;;;;;41.85;26.55;;;;;;;;;;5056451;28;20073;-82
2023/05/12 00:42:08;;;;;;;39.08;25.67;;;;;;;;;;5063618;28;20048;-82
2023/05/12 00:44:35;;;;;;;40.95;26.17;;;;;;;;;;5062204;28;20061;-82
2023/05/12 00:47:02;;;;;;;45.85;27.02;;;;;;;;;;5058388;28;20058;-81
2023/05/12 00:49:29;;;;;;;43.80;28.10;;;;;;;;;;5058841;28;20053;-81
2023/05/12 00:51:55;;;;;;;45.90;28.30;;;;;;;;;;5061292;28;20783;-81
2023/05/12 00:54:22;;;;;;;48.40;28.75;;;;;;;;;;5062317;28;20052;-81
2023/05/12 00:56:48;;;;;;;45.30;27.77;;;;;;;;;;5058977;28;20123;-80
2023/05/12 00:59:14;;;;;;;46.95;30.02;;;;;;;;;;5064832;28;20112;-80
2023/05/12 01:01:40;;;;;;;54.05;31.00;;;;;;;;;;5053809;28;20045;-81
2023/05/12 01:04:07;;;;;;;51.55;30.55;;;;;;;;;;5056178;28;20037;-81
2023/05/12 01:06:52;;;;;;;49.22;29.38;;;;;;;;;;5062282;28;20060;-80
2023/05/12 01:09:18;;;;;;;47.42;29.33;;;;;;;;;;5026461;28;20053;-81
2023/05/12 01:11:44;;;;;;;54.60;30.50;;;;;;;;;;5050818;28;20037;-81
2023/05/12 01:14:10;;;;;;;48.95;30.05;;;;;;;;;;5062600;28;20499;-81
2023/05/12 01:16:42;;;;;;;55.22;32.05;;;;;;;;;;5062879;28;20128;-81
2023/05/12 01:19:13;;;;;;;52.47;32.30;;;;;;;;;;5061937;28;20494;-80
2023/05/12 01:21:39;;;;;;;;;;;;;;;;;;5061689;28;20049;-80
2023/05/12 01:24:10;;;;;;;58.97;31.73;;;;;;;;;;5059917;28;19943;-80
2023/05/12 01:26:36;;;;;;;57.95;33.70;;;;;;;;;;5063188;28;20048;-80
2023/05/12 01:29:03;;;;;;;51.67;33.00;;;;;;;;;;5061555;28;20056;-81
2023/05/12 01:31:29;;;;;;;59.55;34.15;;;;;;;;;;5044231;28;20051;-81
2023/05/12 01:33:55;;;;;;;59.83;34.70;;;;;;;;;;5052876;28;20045;-82
2023/05/12 01:36:21;;;;;;;65.45;35.92;;;;;;;;;;5059251;28;20053;-82
2023/05/12 01:38:47;;;;;;;60.95;33.85;;;;;;;;;;5048953;28;20119;-82
2023/05/12 01:41:13;;;;;;;63.83;34.95;;;;;;;;;;5050892;28;20041;-82
2023/05/12 01:43:40;;;;;;;55.10;34.22;;;;;;;;;;5046076;28;20101;-83
2023/05/12 01:46:06;;;;;;;59.20;33.58;;;;;;;;;;5061321;28;20049;-82
2023/05/12 01:48:32;;;;;;;61.97;35.75;;;;;;;;;;5052083;28;20048;-82
2023/05/12 01:51:01;;;;;;;60.05;35.63;;;;;;;;;;5057772;28;20045;-82
2023/05/12 01:53:27;;;;;;;61.15;36.70;;;;;;;;;;5057708;28;20045;-81
2023/05/12 01:55:53;;;;;;;62.88;37.08;;;;;;;;;;5058907;28;20616;-81
2023/05/12 01:58:19;;;;;;;60.38;35.97;;;;;;;;;;5058200;28;20053;-81
2023/05/12 02:00:45;;;;;;;58.58;35.22;;;;;;;;;;5063642;28;20049;-82
2023/05/12 02:03:11;;;;;;;66.43;39.20;;;;;;;;;;5056250;28;20048;-82
2023/05/12 02:05:37;;;;;;;60.30;36.00;;;;;;;;;;5061641;28;20052;-82
2023/05/12 02:08:03;;;;;;;64.10;38.75;;;;;;;;;;5059729;28;20046;-83
2023/05/12 02:10:29;;;;;;;67.13;37.47;;;;;;;;;;5058313;28;20048;-81
2023/05/12 02:12:56;;;;;;;58.63;36.13;;;;;;;;;;5061669;28;20060;-81
2023/05/12 02:15:22;;;;;;;73.05;37.40;;;;;;;;;;5057476;28;20070;-81
2023/05/12 02:17:52;;;;;;;69.45;38.13;;;;;;;;;;5059301;28;20051;-82
2023/05/12 02:20:18;;;;;;;69.68;38.92;;;;;;;;;;5061875;28;20044;-81
2023/05/12 02:22:44;;;;;;;71.55;38.33;;;;;;;;;;5069259;28;20064;-80
2023/05/12 02:25:11;;;;;;;76.93;39.85;;;;;;;;;;5063370;28;20060;-80
2023/05/12 02:27:37;;;;;;;67.68;38.47;;;;;;;;;;5062228;28;20049;-79
2023/05/12 02:30:03;;;;;;;74.75;39.70;;;;;;;;;;5059377;28;20045;-83
2023/05/12 02:32:29;;;;;;;67.32;37.97;;;;;;;;;;5057662;28;20033;-82
2023/05/12 02:34:55;;;;;;;76.72;38.33;;;;;;;;;;5066617;28;20049;-81
2023/05/12 02:37:22;;;;;;;81.03;41.05;;;;;;;;;;5067354;28;20080;-83
2023/05/12 02:39:48;;;;;;;81.57;41.60;;;;;;;;;;5063780;28;20048;-81
2023/05/12 02:42:14;;;;;;;90.15;42.80;;;;;;;;;;5065292;28;20453;-82
2023/05/12 02:44:40;;;;;;;80.47;43.03;;;;;;;;;;5058120;28;20057;-81
2023/05/12 02:47:09;;;;;;;89.45;43.85;;;;;;;;;;5057342;28;20043;-82
2023/05/12 02:49:35;;;;;;;80.60;42.78;;;;;;;;;;5066102;28;20064;-82
2023/05/12 02:52:01;;;;;;;82.63;41.63;;;;;;;;;;5058945;28;20053;-82
2023/05/12 02:54:27;;;;;;;79.45;41.70;;;;;;;;;;5061998;28;20051;-82
2023/05/12 02:56:56;;;;;;;81.45;42.45;;;;;;;;;;5062987;28;20409;-82
2023/05/12 02:59:22;;;;;;;84.80;42.70;;;;;;;;;;5061890;28;20041;-82
2023/05/12 03:01:49;;;;;;;90.88;44.35;;;;;;;;;;5060605;28;20052;-81
2023/05/12 03:04:15;;;;;;;89.40;45.25;;;;;;;;;;5053069;28;20049;-81
2023/05/12 03:06:41;;;;;;;81.25;43.10;;;;;;;;;;5064270;28;20049;-81
2023/05/12 03:09:07;;;;;;;89.82;45.22;;;;;;;;;;5063374;28;20115;-81
2023/05/12 03:11:33;;;;;;;88.97;44.53;;;;;;;;;;5063430;28;20041;-81
2023/05/12 03:13:59;;;;;;;91.35;45.45;;;;;;;;;;5063831;28;20178;-81
2023/05/12 03:16:25;;;;;;;81.78;43.20;;;;;;;;;;5061875;28;20048;-81
2023/05/12 03:18:52;;;;;;;80.18;43.75;;;;;;;;;;5052492;28;20059;-82
2023/05/12 03:21:18;;;;;;;92.38;44.75;;;;;;;;;;5045086;28;20045;-81
2023/05/12 03:23:47;;;;;;;95.07;45.83;;;;;;;;;;5063958;28;20118;-82
2023/05/12 03:26:13;;;;;;;97.88;47.50;;;;;;;;;;5064530;28;20049;-82
2023/05/12 03:28:39;;;;;;;88.72;44.70;;;;;;;;;;5061767;28;20045;-81
2023/05/12 03:31:05;;;;;;;91.82;45.03;;;;;;;;;;5037740;28;20064;-81
2023/05/12 03:33:31;;;;;;;102.57;48.10;;;;;;;;;;5044240;28;20487;-81
2023/05/12 03:35:58;;;;;;;95.65;45.53;;;;;;;;;;5054109;28;20495;-81
2023/05/12 03:38:24;;;;;;;95.38;46.22;;;;;;;;;;5058239;28;20120;-80
2023/05/12 03:40:53;;;;;;;93.63;45.75;;;;;;;;;;5059413;28;20040;-81
2023/05/12 03:43:20;;;;;;;99.20;47.40;;;;;;;;;;5057135;28;20048;-82
2023/05/12 03:45:46;;;;;;;88.78;45.45;;;;;;;;;;5048162;28;20068;-82
2023/05/12 03:48:12;;;;;;;92.57;44.95;;;;;;;;;;5055129;28;20103;-82
2023/05/12 03:50:38;;;;;;;90.03;42.95;;;;;;;;;;5060488;28;20053;-84
2023/05/12 03:53:04;;;;;;;89.75;45.13;;;;;;;;;;5048719;28;20044;-83
2023/05/12 03:55:30;;;;;;;93.43;44.90;;;;;;;;;;5061966;28;20032;-83
2023/05/12 03:57:56;;;;;;;98.88;45.92;;;;;;;;;;5057489;28;20533;-82
2023/05/12 04:00:22;;;;;;;84.60;44.35;;;;;;;;;;5024902;28;20314;-83
2023/05/12 04:02:49;;;;;;;88.47;45.28;;;;;;;;;;5055619;28;20056;-82
2023/05/12 04:05:15;;;;;;;88.30;44.05;;;;;;;;;;5060077;28;20045;-81
2023/05/12 04:07:41;;;;;;;79.95;42.22;;;;;;;;;;5054186;28;20049;-82
2023/05/12 04:10:08;;;;;;;89.55;45.08;;;;;;;;;;5057806;28;20044;-81
2023/05/12 04:12:34;;;;;;;86.03;44.03;;;;;;;;;;5057601;28;20056;-81
2023/05/12 04:15:00;;;;;;;79.57;44.55;;;;;;;;;;5043089;28;20183;-82
2023/05/12 04:17:26;;;;;;;84.32;43.97;;;;;;;;;;5054539;28;20103;-81
2023/05/12 04:19:52;;;;;;;82.13;44.08;;;;;;;;;;5058014;28;20060;-82
2023/05/12 04:22:18;;;;;;;80.18;42.90;;;;;;;;;;5057412;28;20061;-81
2023/05/12 04:24:44;;;;;;;70.05;41.55;;;;;;;;;;5055227;28;20049;-81
2023/05/12 04:27:10;;;;;;;71.35;42.20;;;;;;;;;;5058731;28;20041;-82
2023/05/12 04:29:37;;;;;;;76.50;41.40;;;;;;;;;;5069970;28;20041;-81
2023/05/12 04:32:03;;;;;;;73.18;40.72;;;;;;;;;;5063030;28;20045;-83
2023/05/12 04:34:29;;;;;;;75.32;40.92;;;;;;;;;;5045326;28;20052;-82
2023/05/12 04:36:55;;;;;;;76.32;43.17;;;;;;;;;;5058782;28;20045;-82
2023/05/12 04:39:21;;;;;;;82.45;43.83;;;;;;;;;;5053129;28;20117;-82
2023/05/12 04:41:47;;;;;;;83.00;43.50;;;;;;;;;;5043033;28;20049;-82
2023/05/12 04:44:13;;;;;;;83.15;44.85;;;;;;;;;;5067506;28;20048;-82
2023/05/12 04:46:39;;;;;;;82.57;43.63;;;;;;;;;;5070768;28;20025;-82
2023/05/12 04:49:06;;;;;;;84.97;43.92;;;;;;;;;;5060427;28;20053;-81
2023/05/12 04:51:32;;;;;;;87.55;44.92;;;;;;;;;;5055611;28;20056;-79
2023/05/12 04:53:58;;;;;;;76.82;42.15;;;;;;;;;;5061473;28;20049;-81
2023/05/12 04:56:24;;;;;;;85.07;43.13;;;;;;;;;;5040709;28;20037;-81
2023/05/12 04:58:50;;;;;;;83.13;44.97;;;;;;;;;;5059068;28;20048;-81
2023/05/12 05:01:16;;;;;;;85.20;42.83;;;;;;;;;;5052064;28;20056;-80
2023/05/12 05:03:42;;;;;;;95.25;44.95;;;;;;;;;;5045918;28;20159;-80
2023/05/12 05:06:08;;;;;;;96.75;46.22;;;;;;;;;;5043153;28;20056;-81
2023/05/12 05:08:34;;;;;;;94.97;46.35;;;;;;;;;;5053743;28;20076;-81
2023/05/12 05:11:01;;;;;;;99.03;47.33;;;;;;;;;;5031012;28;20045;-80
2023/05/12 05:13:27;;;;;;;94.57;46.78;;;;;;;;;;5072679;28;20057;-80
2023/05/12 05:15:53;;;;;;;104.18;48.45;;;;;;;;;;5053791;28;20049;-80
2023/05/12 05:18:20;;;;;;;95.75;47.45;;;;;;;;;;5028210;28;20053;-81
2023/05/12 05:20:46;;;;;;;93.07;47.00;;;;;;;;;;5054705;28;20091;-81
2023/05/12 05:23:12;;;;;;;87.10;46.75;;;;;;;;;;5061294;28;20045;-80
2023/05/12 05:25:38;;;;;;;85.90;45.60;;;;;;;;;;5061712;28;20053;-81
2023/05/12 05:28:04;;;;;;;76.40;43.97;;;;;;;;;;5060487;28;20116;-81
2023/05/12 05:30:31;;;;;;;78.68;45.13;;;;;;;;;;5044343;28;20053;-81
2023/05/12 05:32:57;;;;;;;105.07;46.47;;;;;;;;;;5060348;28;20119;-81
2023/05/12 05:35:23;;;;;;;92.93;45.58;;;;;;;;;;5042806;28;20037;-82
2023/05/12 05:37:52;;;;;;;91.75;45.63;;;;;;;;;;5061843;28;20045;-81
2023/05/12 05:40:18;;;;;;;76.90;42.20;;;;;;;;;;5043608;28;20100;-81
2023/05/12 05:42:44;;;;;;;86.90;44.53;;;;;;;;;;5060223;28;20049;-81
2023/05/12 05:45:11;;;;;;;110.15;46.92;;;;;;;;;;5057411;28;20045;-81
2023/05/12 05:47:37;;;;;;;119.97;49.67;;;;;;;;;;5058467;28;20040;-81
2023/05/12 05:50:03;;;;;;;98.32;47.15;;;;;;;;;;5057132;28;20052;-81
2023/05/12 05:52:29;;;;;;;90.95;45.92;;;;;;;;;;5060830;28;20095;-80
2023/05/12 05:54:56;;;;;;;92.50;45.47;;;;;;;;;;5039189;28;20156;-82
2023/05/12 05:57:22;;;;;;;111.65;48.67;;;;;;;;;;5045897;28;20052;-82
2023/05/12 05:59:48;;;;;;;105.72;46.78;;;;;;;;;;5061091;28;20072;-81
2023/05/12 06:02:15;;;;;;;111.90;47.22;;;;;;;;;;5059322;28;20144;-82
2023/05/12 06:04:41;;;;;;;83.05;44.03;;;;;;;;;;5060326;28;20053;-82
2023/05/12 06:07:07;;;;;;;127.88;46.03;;;;;;;;;;5058195;28;20040;-81
2023/05/12 06:09:33;;;;;;;100.35;46.47;;;;;;;;;;5055414;28;20395;-81
2023/05/12 06:11:59;;;;;;;109.60;46.20;;;;;;;;;;5053366;28;20045;-82
2023/05/12 06:14:25;;;;;;;106.47;46.30;;;;;;;;;;5056761;28;20372;-81
2023/05/12 06:16:51;;;;;;;96.50;46.22;;;;;;;;;;5060821;28;20037;-82
2023/05/12 06:19:17;;;;;;;118.15;48.15;;;;;;;;;;5045928;28;20048;-80
2023/05/12 06:21:43;;;;;;;90.00;44.75;;;;;;;;;;5064155;28;20044;-81
2023/05/12 06:24:09;;;;;;;83.13;41.75;;;;;;;;;;5045494;28;20045;-81
2023/05/12 06:26:36;;;;;;;83.60;42.33;;;;;;;;;;5062875;28;20049;-81
2023/05/12 06:29:02;;;;;;;112.28;47.85;;;;;;;;;;5043930;28;20045;-81
2023/05/12 06:31:28;;;;;;;95.20;45.05;;;;;;;;;;5062878;28;20450;-81
2023/05/12 06:33:54;;;;;;;89.38;44.70;;;;;;;;;;5061686;28;20102;-80
2023/05/12 06:36:21;;;;;;;101.75;46.47;;;;;;;;;;5061309;28;20095;-81
2023/05/12 06:38:47;;;;;;;112.88;46.10;;;;;;;;;;5052933;28;20042;-82
2023/05/12 06:41:13;;;;;;;129.30;45.50;;;;;;;;;;5060136;28;20068;-81
2023/05/12 06:43:39;;;;;;;85.32;45.17;;;;;;;;;;5067436;28;20045;-80
2023/05/12 06:46:05;;;;;;;87.40;44.17;;;;;;;;;;5063231;28;20094;-81
2023/05/12 06:48:32;;;;;;;100.95;45.63;;;;;;;;;;5062963;28;20466;-81
2023/05/12 06:50:58;;;;;;;74.47;41.65;;;;;;;;;;5065015;28;20123;-81
2023/05/12 06:53:24;;;;;;;87.03;43.42;;;;;;;;;;5061612;28;20052;-81
2023/05/12 06:55:52;;;;;;;76.10;42.00;;;;;;;;;;5062829;28;20124;-80
2023/05/12 06:58:20;;;;;;;84.95;42.95;;;;;;;;;;5045959;28;20060;-81
2023/05/12 07:00:46;;;;;;;76.47;43.03;;;;;;;;;;5064052;28;20044;-81
2023/05/12 07:03:13;;;;;;;73.60;42.08;;;;;;;;;;5062802;28;20037;-81
2023/05/12 07:05:40;;;;;;;70.60;41.50;;;;;;;;;;5053256;28;20077;-80
2023/05/12 07:08:06;;;;;;;62.28;39.78;;;;;;;;;;5051142;28;20050;-81
2023/05/12 07:10:34;;;;;;;68.13;39.65;;;;;;;;;;5033169;28;20052;-80
2023/05/12 07:13:00;;;;;;;74.35;40.10;;;;;;;;;;5062930;28;20041;-81
2023/05/12 07:15:26;;;;;;;72.30;41.47;;;;;;;;;;5042298;28;20057;-82
2023/05/12 07:17:54;;;;;;;60.45;39.75;;;;;;;;;;5054299;28;20458;-83
2023/05/12 07:20:20;;;;;;;62.80;38.70;;;;;;;;;;5063366;28;20044;-82
2023/05/12 07:22:46;;;;;;;62.20;39.88;;;;;;;;;;5062733;28;20045;-82
2023/05/12 07:25:12;;;;;;;54.95;38.17;;;;;;;;;;5062937;28;20049;-83
2023/05/12 07:27:38;;;;;;;54.78;36.90;;;;;;;;;;5058291;28;20449;-80
2023/05/12 07:30:05;;;;;;;54.00;36.67;;;;;;;;;;5063483;28;20052;-80
2023/05/12 07:32:31;;;;;;;51.58;36.10;;;;;;;;;;5062644;28;20044;-81
2023/05/12 07:34:58;;;;;;;53.25;36.55;;;;;;;;;;5060316;28;20110;-81
2023/05/12 07:37:24;;;;;;;51.33;36.95;;;;;;;;;;5063228;28;20044;-80
2023/05/12 07:39:50;;;;;;;46.38;34.75;;;;;;;;;;5048565;28;20060;-81
2023/05/12 07:42:16;;;;;;;44.30;32.80;;;;;;;;;;5063406;28;20079;-80
2023/05/12 07:44:42;;;;;;;43.38;33.03;;;;;;;;;;5063958;28;20041;-80
2023/05/12 07:47:08;;;;;;;40.83;32.63;;;;;;;;;;5055309;28;20123;-81
2023/05/12 07:49:34;;;;;;;43.13;34.30;;;;;;;;;;5069331;28;20053;-81
2023/05/12 07:52:01;;;;;;;44.30;34.92;;;;;;;;;;5071993;28;20083;-80
2023/05/12 07:54:27;;;;;;;41.90;33.20;;;;;;;;;;5057337;28;20041;-82
2023/05/12 07:56:53;;;;;;;40.17;33.55;;;;;;;;;;5054347;28;20052;-80
2023/05/12 07:59:19;;;;;;;40.00;33.83;;;;;;;;;;5061599;28;20051;-80
2023/05/12 08:01:45;;;;;;;38.60;32.90;;;;;;;;;;5037631;28;20037;-81
2023/05/12 08:04:11;;;;;;;41.47;33.67;;;;;;;;;;5060064;28;20045;-81
2023/05/12 08:06:37;;;;;;;38.17;31.85;;;;;;;;;;5053833;28;20037;-81
2023/05/12 08:09:03;;;;;;;34.53;30.60;;;;;;;;;;5061280;28;20064;-81
2023/05/12 08:11:29;;;;;;;33.83;30.15;;;;;;;;;;5034377;28;20064;-80
2023/05/12 08:13:55;;;;;;;35.13;30.73;;;;;;;;;;5030536;28;20050;-81
2023/05/12 08:16:21;;;;;;;33.38;29.48;;;;;;;;;;5058672;28;20049;-84
2023/05/12 08:18:47;;;;;;;33.78;29.55;;;;;;;;;;5044097;28;20045;-81
2023/05/12 08:21:13;;;;;;;32.90;28.20;;;;;;;;;;5043732;28;20089;-81
2023/05/12 08:23:39;;;;;;;35.15;30.90;;;;;;;;;;5047547;28;20403;-80
2023/05/12 08:26:05;;;;;;;33.35;29.73;;;;;;;;;;5063618;28;20136;-81
2023/05/12 08:28:32;;;;;;;31.45;28.05;;;;;;;;;;5063067;28;20044;-80
2023/05/12 08:30:58;;;;;;;34.05;29.80;;;;;;;;;;5043624;28;20053;-82
2023/05/12 08:33:24;;;;;;;32.35;28.95;;;;;;;;;;5061420;28;20049;-81
2023/05/12 08:35:50;;;;;;;30.55;27.27;;;;;;;;;;5062253;28;20040;-81
2023/05/12 08:38:16;;;;;;;30.17;27.15;;;;;;;;;;5060259;28;20041;-81
2023/05/12 08:41:03;;;;;;;30.02;27.02;;;;;;;;;;5061355;28;20510;-82
2023/05/12 08:43:52;;;;;;;30.88;27.67;;;;;;;;;;5058755;28;20186;-81
2023/05/12 08:46:18;;;;;;;28.33;25.50;;;;;;;;;;5048636;28;20132;-80
2023/05/12 08:48:46;;;;;;;29.05;26.15;;;;;;;;;;5045616;28;20041;-80
2023/05/12 08:51:12;;;;;;;29.08;26.17;;;;;;;;;;5062478;28;20490;-82
2023/05/12 08:53:39;;;;;;;28.27;25.17;;;;;;;;;;5065613;28;20068;-82
2023/05/12 08:56:06;;;;;;;28.90;26.08;;;;;;;;;;5065967;28;20036;-81
2023/05/12 08:58:32;;;;;;;29.33;26.25;;;;;;;;;;5065934;28;20041;-82
2023/05/12 09:01:06;;;;;;;29.75;26.45;;;;;;;;;;5047068;28;20045;-82
2023/05/12 09:03:33;;;;;;;30.60;27.30;;;;;;;;;;5033228;28;20036;-82
2023/05/12 09:06:00;;;;;;;28.95;26.10;;;;;;;;;;5046166;28;20068;-82
2023/05/12 09:08:26;;;;;;;29.30;26.40;;;;;;;;;;5064268;28;20045;-82
2023/05/12 09:10:55;;;;;;;29.15;26.17;;;;;;;;;;5042457;28;20045;-82
2023/05/12 09:13:42;;;;;;;27.63;24.80;;;;;;;;;;5063689;28;20053;-83
2023/05/12 09:16:12;;;;;;;28.33;25.52;;;;;;;;;;5063586;28;20041;-81
2023/05/12 09:18:48;;;;;;;27.45;24.92;;;;;;;;;;5062812;28;20513;-81
2023/05/12 09:21:14;;;;;;;27.60;24.90;;;;;;;;;;5045496;28;20037;-82
2023/05/12 09:23:40;;;;;;;28.15;25.25;;;;;;;;;;5062308;28;20441;-82
2023/05/12 09:26:06;;;;;;;27.25;24.63;;;;;;;;;;5062905;28;20037;-83
2023/05/12 09:28:36;;;;;;;27.05;24.38;;;;;;;;;;5030550;28;20041;-82
2023/05/12 09:31:13;;;;;;;26.90;24.42;;;;;;;;;;5063729;28;20048;-82
2023/05/12 09:33:39;;;;;;;25.30;22.95;;;;;;;;;;5066961;28;20063;-82
2023/05/12 09:36:06;;;;;;;26.45;23.83;;;;;;;;;;5053349;28;20053;-82
2023/05/12 09:38:32;;;;;;;26.05;23.55;;;;;;;;;;5048630;28;20387;-82
2023/05/12 09:40:58;;;;;;;27.52;24.95;;;;;;;;;;5048502;28;20045;-82
2023/05/12 09:43:24;;;;;;;24.00;21.60;;;;;;;;;;5051370;28;20056;-79
2023/05/12 09:45:50;;;;;;;27.40;24.60;;;;;;;;;;5067200;28;20075;-81
2023/05/12 09:48:16;;;;;;;26.65;23.98;;;;;;;;;;5067750;28;20044;-80
2023/05/12 09:50:50;;;;;;;26.92;24.27;;;;;;;;;;5040255;28;20402;-82
2023/05/12 09:53:17;;;;;;;26.85;24.10;;;;;;;;;;5043238;28;20049;-82
2023/05/12 09:55:47;;;;;;;26.30;23.90;;;;;;;;;;5058980;28;20045;-83
2023/05/12 09:58:17;;;;;;;25.63;23.33;;;;;;;;;;5048933;28;20049;-82
2023/05/12 10:00:43;;;;;;;24.42;22.02;;;;;;;;;;5071366;28;20041;-82
2023/05/12 10:03:11;;;;;;;28.30;22.75;;;;;;;;;;5071580;28;20037;-81
2023/05/12 10:05:38;;;;;;;24.30;21.98;;;;;;;;;;5049527;28;20048;-82
2023/05/12 10:08:07;;;;;;;23.40;21.13;;;;;;;;;;5056419;28;20049;-81
2023/05/12 10:10:33;;;;;;;24.70;22.40;;;;;;;;;;5057174;28;20044;-83
2023/05/12 10:13:00;;;;;;;23.35;21.05;;;;;;;;;;5068850;28;20041;-81
2023/05/12 10:15:27;;;;;;;24.65;22.45;;;;;;;;;;5047702;28;20052;-82
2023/05/12 10:17:54;;;;;;;24.15;21.95;;;;;;;;;;5054829;28;20025;-82
2023/05/12 10:20:20;;;;;;;24.85;22.55;;;;;;;;;;5064816;28;20045;-81
2023/05/12 10:22:47;;;;;;;24.20;22.00;;;;;;;;;;5060305;28;20046;-80
2023/05/12 10:25:14;;;;;;;23.52;21.17;;;;;;;;;;5062049;28;20056;-80
2023/05/12 10:27:41;;;;;;;24.27;21.90;;;;;;;;;;5076193;28;20044;-80
2023/05/12 10:30:07;;;;;;;24.70;22.38;;;;;;;;;;5069597;28;20048;-82
2023/05/12 10:32:33;;;;;;;23.33;21.23;;;;;;;;;;5069759;28;20086;-81
2023/05/12 10:35:11;;;;;;;22.70;20.23;;;;;;;;;;5067804;28;20063;-82
2023/05/12 10:37:37;;;;;;;22.23;20.23;;;;;;;;;;5049559;28;20045;-82
2023/05/12 10:40:05;;;;;;;21.63;19.55;;;;;;;;;;5050964;28;20050;-83
2023/05/12 10:42:38;;;;;;;21.45;19.45;;;;;;;;;;5052194;28;20041;-83
2023/05/12 10:45:14;;;;;;;22.00;20.00;;;;;;;;;;5069722;28;20045;-80
2023/05/12 10:47:42;;;;;;;21.98;19.90;;;;;;;;;;5069866;28;20049;-82
2023/05/12 10:50:09;;;;;;;23.17;21.10;;;;;;;;;;5058955;28;20064;-80
2023/05/12 10:52:35;;;;;;;21.45;19.25;;;;;;;;;;5066943;28;20048;-81
2023/05/12 10:55:02;;;;;;;22.98;20.90;;;;;;;;;;5068680;28;20041;-80
2023/05/12 10:57:29;;;;;;;21.90;19.70;;;;;;;;;;5068841;28;20037;-80
2023/05/12 10:59:59;;;;;;;21.17;19.13;;;;;;;;;;5068652;28;20087;-80
2023/05/12 11:02:31;;;;;;;19.85;17.95;;;;;;;;;;5068042;28;20076;-80
2023/05/12 11:05:04;;;;;;;18.23;16.25;;;;;;;;;;5067258;28;20049;-82
2023/05/12 11:07:32;;;;;;;20.08;16.42;;;;;;;;;;5064090;28;20041;-80
2023/05/12 11:09:59;;;;;;;18.02;16.33;;;;;;;;;;5047104;28;20129;-80
2023/05/12 11:12:26;;;;;;;19.40;17.52;;;;;;;;;;5067617;28;20052;-80
2023/05/12 11:14:53;;;;;;;18.30;16.50;;;;;;;;;;5067665;28;20045;-80
2023/05/12 11:17:19;;;;;;;17.50;15.73;;;;;;;;;;5067923;28;20045;-81
2023/05/12 11:19:49;;;;;;;19.33;15.82;;;;;;;;;;5064945;28;20044;-81
2023/05/12 11:22:20;;;;;;;14.77;13.33;;;;;;;;;;5070267;28;20051;-82
2023/05/12 11:24:47;;;;;;;14.80;13.25;;;;;;;;;;5052018;28;20052;-79
2023/05/12 11:27:17;;;;;;;13.75;10.55;;;;;;;;;;5068942;28;20068;-82
2023/05/12 11:29:45;;;;;;;15.53;10.50;;;;;;;;;;5069637;28;20041;-80
2023/05/12 11:32:12;;;;;;;15.38;10.98;;;;;;;;;;5069109;28;20284;-80
2023/05/12 11:34:38;;;;;;;11.63;10.43;;;;;;;;;;5067826;28;20063;-80
2023/05/12 11:37:07;;;;;;;14.98;10.23;;;;;;;;;;5061333;28;20041;-80
2023/05/12 11:39:35;;;;;;;11.15;9.15;;;;;;;;;;5049961;28;20113;-79
2023/05/12 11:42:04;;;;;;;13.05;8.82;;;;;;;;;;5066581;28;20109;-79
2023/05/12 11:44:30;;;;;;;11.15;8.50;;;;;;;;;;5068057;28;20037;-79
2023/05/12 11:47:00;;;;;;;12.27;8.13;;;;;;;;;;5043272;28;20057;-79
2023/05/12 11:49:27;;;;;;;8.30;5.20;;;;;;;;;;5053716;28;20048;-81
2023/05/12 11:51:57;;;;;;;10.07;7.20;;;;;;;;;;5055319;28;20109;-79
2023/05/12 11:54:24;;;;;;;8.57;7.35;;;;;;;;;;5047586;28;20041;-80
2023/05/12 11:56:51;;;;;;;8.27;7.35;;;;;;;;;;5053049;28;20048;-80
2023/05/12 11:59:33;;;;;;;9.85;7.32;;;;;;;;;;5065869;28;20068;-80
2023/05/12 12:01:59;;;;;;;11.25;5.57;;;;;;;;;;5040101;28;20065;-79
2023/05/12 12:04:32;;;;;;;11.48;5.80;;;;;;;;;;5058347;28;20105;-78
2023/05/12 12:06:58;;;;;;;8.48;6.10;;;;;;;;;;5069454;28;20045;-79
2023/05/12 12:09:51;;;;;;;11.07;5.57;;;;;;;;;;5068477;28;20041;-79
2023/05/12 12:12:22;;;;;;;11.52;5.25;;;;;;;;;;5124384;27;1240176;-71
2023/05/12 12:14:48;;;;;;;9.30;6.30;;;;;;;;;;5147302;27;20050;-72
2023/05/12 12:17:14;;;;;;;7.78;6.03;;;;;;;;;;5150466;27;20035;-72
2023/05/12 12:19:40;;;;;;;7.03;5.22;;;;;;;;;;5147946;27;20035;-73
2023/05/12 12:22:06;;;;;;;8.63;5.60;;;;;;;;;;5142003;27;20049;-73
2023/05/12 12:24:33;;;;;;;8.45;5.20;;;;;;;;;;5147478;27;20058;-73
2023/05/12 12:26:59;;;;;;;9.45;5.55;;;;;;;;;;5129508;27;20095;-73
2023/05/12 12:29:27;;;;;;;10.65;5.97;;;;;;;;;;5148495;27;20126;-73
2023/05/12 12:31:53;;;;;;;7.15;4.50;;;;;;;;;;5150247;27;20038;-74
2023/05/12 12:34:19;;;;;;;6.60;4.55;;;;;;;;;;5113997;28;20079;-72
2023/05/12 12:36:46;;;;;;;8.02;3.40;;;;;;;;;;5095460;28;20529;-73
2023/05/12 12:39:13;;;;;;;8.23;3.92;;;;;;;;;;5146009;27;20378;-73
2023/05/12 12:41:39;;;;;;;7.63;3.92;;;;;;;;;;5149125;27;20047;-73
2023/05/12 12:44:05;;;;;;;6.57;3.55;;;;;;;;;;5149847;27;20078;-73
2023/05/12 12:46:31;;;;;;;10.85;4.15;;;;;;;;;;5151025;27;20412;-72
2023/05/12 12:48:57;;;;;;;11.45;3.58;;;;;;;;;;5151060;27;20506;-73
2023/05/12 12:51:24;;;;;;;7.65;3.67;;;;;;;;;;5150707;27;20122;-73
2023/05/12 12:53:50;;;;;;;6.40;3.28;;;;;;;;;;5147249;27;20088;-73
2023/05/12 12:56:17;;;;;;;6.63;3.63;;;;;;;;;;5149209;27;20080;-76
2023/05/12 12:58:43;;;;;;;6.70;3.50;;;;;;;;;;5134132;27;20048;-73
2023/05/12 13:01:09;;;;;;;6.85;4.07;;;;;;;;;;5129960;28;20035;-73
2023/05/12 13:03:35;;;;;;;6.95;4.07;;;;;;;;;;5147442;27;20049;-73
2023/05/12 13:06:01;;;;;;;9.20;3.72;;;;;;;;;;5150362;27;20162;-73
2023/05/12 13:08:27;;;;;;;7.25;3.58;;;;;;;;;;5150195;27;20078;-73
2023/05/12 13:10:53;;;;;;;8.68;4.03;;;;;;;;;;5129305;27;20055;-72
2023/05/12 13:13:19;;;;;;;5.90;3.75;;;;;;;;;;5145322;27;20514;-72
2023/05/12 13:15:46;;;;;;;6.55;3.65;;;;;;;;;;5150588;27;20035;-73
2023/05/12 13:18:12;;;;;;;8.82;3.80;;;;;;;;;;5130964;27;20135;-72
2023/05/12 13:20:39;;;;;;;7.60;3.03;;;;;;;;;;5149231;27;20108;-72
2023/05/12 13:23:05;;;;;;;7.18;3.65;;;;;;;;;;5137669;27;20099;-72
2023/05/12 13:25:31;;;;;;;7.32;3.40;;;;;;;;;;5135440;27;20051;-72
2023/05/12 13:27:57;;;;;;;9.82;3.67;;;;;;;;;;5136305;27;20061;-72
2023/05/12 13:30:23;;;;;;;5.63;2.80;;;;;;;;;;5135585;27;20039;-72
2023/05/12 13:32:50;;;;;;;6.95;3.35;;;;;;;;;;5134791;27;20086;-72
2023/05/12 13:35:16;;;;;;;5.13;3.10;;;;;;;;;;5130445;27;20047;-73
2023/05/12 13:37:42;;;;;;;7.35;3.80;;;;;;;;;;5125142;27;20442;-72
2023/05/12 13:40:08;;;;;;;6.60;3.35;;;;;;;;;;5133386;27;20485;-73
2023/05/12 13:42:34;;;;;;;7.10;3.75;;;;;;;;;;5128788;27;20094;-73
2023/05/12 13:45:00;;;;;;;6.28;3.55;;;;;;;;;;5135850;27;20051;-73
2023/05/12 13:47:27;;;;;;;7.28;2.85;;;;;;;;;;5117384;27;20082;-73
2023/05/12 13:49:55;;;;;;;6.07;3.25;;;;;;;;;;5115790;27;20131;-73
2023/05/12 13:52:21;;;;;;;8.02;2.80;;;;;;;;;;5136040;27;20046;-73
2023/05/12 13:54:47;;;;;;;5.93;3.10;;;;;;;;;;5134283;27;20113;-72
2023/05/12 13:57:13;;;;;;;7.40;2.85;;;;;;;;;;5135457;27;20054;-73
2023/05/12 13:59:39;;;;;;;8.63;2.80;;;;;;;;;;5099936;27;20103;-73
2023/05/12 14:02:08;;;;;;;8.35;2.97;;;;;;;;;;5135037;27;20046;-73
2023/05/12 14:04:34;;;;;;;6.72;2.90;;;;;;;;;;5133524;27;20054;-74
2023/05/12 14:07:00;;;;;;;5.95;2.70;;;;;;;;;;5117485;27;20051;-72
2023/05/12 14:09:27;;;;;;;8.32;2.67;;;;;;;;;;5134432;27;20050;-72
2023/05/12 14:11:53;;;;;;;7.47;2.75;;;;;;;;;;5131141;27;20095;-72
2023/05/12 14:14:19;;;;;;;6.18;2.53;;;;;;;;;;5134504;27;20074;-72
2023/05/12 14:16:45;;;;;;;8.73;2.60;;;;;;;;;;5129211;27;20035;-72
2023/05/12 14:19:11;;;;;;;7.20;2.97;;;;;;;;;;5128307;27;20035;-72